Waunakee, WI (53597)

1:23 PM CDT on September 28, 2016 (GMT -0500)
4th Street Weather | | Change Station

Elev 942 ft 43.19 °N, 89.46 °W | Updated 8 seconds ago

Overcast
Overcast
59.9 °F
Feels Like 59.9 °F
N
0.0
Wind Variable Wind from NNW
Gusts 0.0 mph

Today
High -- | Low -- °F
--% Chance of Precip.
Yesterday
High -- | Low -- °F
Precip. -- in
Pressure 30.02 in
Visibility 10.0 miles
Clouds Mostly Cloudy 2100 ft
Mostly Cloudy 2900 ft
Overcast 3600 ft
Dew Point 54 °F
Humidity 80%
Rainfall 0.02 in
Snow Depth Not available.
6:52 AM 6:43 PM
Waning Crescent, 5% visible
METAR KC29 281815Z AUTO 02015KT 10SM BKN021 BKN029 OVC036 16/10 A3002 RMK AO1 T01550101
Pressure 30.02 in
Visibility 10.0 miles
Clouds Mostly Cloudy 2100 ft
Mostly Cloudy 2900 ft
Overcast 3600 ft
Dew Point 54 °F
Humidity 80%
Rainfall 0.02 in
Snow Depth Not available.
6:52 AM 6:43 PM
Waning Crescent, 5% visible
METAR KC29 281815Z AUTO 02015KT 10SM BKN021 BKN029 OVC036 16/10 A3002 RMK AO1 T01550101

10-Day Weather Forecast

Almanac

Astronomy

Sep. 28, 2016 Rise Set
Actual Time
Civil Twilight
Nautical Twilight
Astronomical Twilight
Moon
Length of Visible Light
Length of Day
Tomorrow will be .
, % of the Moon is Illuminated

Today's Extremes

State Highs State Lows

Community

WunderPhotos

Upload Photos

1,942,297 photos uploaded!

WunderBlog® & News

Nearby

Air Quality

  Air Quality AQ Index Pollutant
Not available.

Snow Depth

Station Depth Elevation

Earthquake Activity

City Distance Mag. Time & Date
Minimum magnitude displayed is 2.5.

Coastal Water Temperatures

Place Temperature

Stations

Nearby Weather Stations

Station Location Temp. Windchill Dew Point Humidity Wind Precip. Elev Updated Type
                   

Watches & Warnings

There are currently no watches in effect.